Time;durP1;ratioP1;P1;durP2;ratioP2;P2;SDS_P1;SDS_P2;PMS_P1;PMS_P2;Temp;Humidity;BMP_temperature;BMP_pressure;BME280_temperature;BME280_humidity;BME280_pressure;Samples;Min_cycle;Max_cycle;Signal;HPM_P1;HPM_P2
2021/05/16 00:00:39;;;;;;;4.33;3.00;;;8.90;99.90;;;;;;5076105;28;20853;-72
2021/05/16 00:03:07;;;;;;;4.13;2.37;;;9.00;99.90;;;;;;5075958;28;20457;-72
2021/05/16 00:05:35;;;;;;;3.50;2.40;;;9.00;99.90;;;;;;5087436;28;20452;-72
2021/05/16 00:08:09;;;;;;;4.00;2.50;;;9.00;99.90;;;;;;5096512;28;20459;-73
2021/05/16 00:10:36;;;;;;;5.20;2.67;;;9.10;99.90;;;;;;5096773;28;20451;-71
2021/05/16 00:13:04;;;;;;;3.80;2.70;;;9.00;99.90;;;;;;5095352;28;20539;-72
2021/05/16 00:15:37;;;;;;;3.00;2.27;;;9.00;99.90;;;;;;5095957;28;20452;-72
2021/05/16 00:18:08;;;;;;;5.93;3.03;;;8.90;99.90;;;;;;5094863;28;20463;-72
2021/05/16 00:20:36;;;;;;;2.60;2.40;;;8.80;99.90;;;;;;5096549;28;20742;-72
2021/05/16 00:23:04;;;;;;;2.73;2.07;;;8.90;99.90;;;;;;5096384;28;20542;-72
2021/05/16 00:25:32;;;;;;;3.30;2.50;;;8.90;99.90;;;;;;5083188;28;20881;-73
2021/05/16 00:27:59;;;;;;;2.97;2.23;;;8.90;99.90;;;;;;5078936;28;20449;-72
2021/05/16 00:30:28;;;;;;;5.90;2.53;;;8.80;99.90;;;;;;5076369;28;20516;-72
2021/05/16 00:32:57;;;;;;;4.00;2.77;;;8.90;99.90;;;;;;5075929;28;20496;-72
2021/05/16 00:35:28;;;;;;;4.17;2.50;;;8.90;99.90;;;;;;5075881;28;20481;-72
2021/05/16 00:37:56;;;;;;;6.50;2.97;;;8.90;99.90;;;;;;5076118;28;20864;-72
2021/05/16 00:40:24;;;;;;;4.07;2.83;;;8.90;99.90;;;;;;5075424;28;20515;-72
2021/05/16 00:42:51;;;;;;;3.67;2.67;;;8.90;99.90;;;;;;5076139;28;20497;-72
2021/05/16 00:45:21;;;;;;;3.30;3.00;;;8.90;99.90;;;;;;5076296;28;20844;-72
2021/05/16 00:47:51;;;;;;;7.03;2.67;;;8.90;99.90;;;;;;5075975;28;21098;-72
2021/05/16 00:50:20;;;;;;;3.17;2.20;;;8.80;99.90;;;;;;5076315;28;20467;-72
2021/05/16 00:52:49;;;;;;;3.60;2.80;;;8.70;99.90;;;;;;5075387;28;20638;-72
2021/05/16 00:55:17;;;;;;;3.77;2.60;;;8.60;99.90;;;;;;5076196;28;20453;-72
2021/05/16 00:57:45;;;;;;;3.83;2.47;;;8.70;99.90;;;;;;5076198;28;20489;-72
2021/05/16 01:00:14;;;;;;;4.97;2.90;;;8.70;99.90;;;;;;5075603;28;20544;-72
2021/05/16 01:02:42;;;;;;;3.50;2.50;;;8.60;99.90;;;;;;5075734;28;20867;-72
2021/05/16 01:05:12;;;;;;;4.47;2.80;;;8.60;99.90;;;;;;5075988;28;20465;-72
2021/05/16 01:07:40;;;;;;;4.20;2.77;;;8.70;99.90;;;;;;5075532;28;20886;-72
2021/05/16 01:10:10;;;;;;;3.30;2.50;;;8.70;99.90;;;;;;5075759;28;20461;-72
2021/05/16 01:12:49;;;;;;;3.33;2.80;;;8.80;99.90;;;;;;5080996;28;20568;-72
2021/05/16 01:15:18;;;;;;;3.50;2.40;;;8.70;99.90;;;;;;5098155;28;20452;-72
2021/05/16 01:17:47;;;;;;;5.17;2.57;;;8.70;99.90;;;;;;5093837;28;20453;-72
2021/05/16 01:20:17;;;;;;;3.80;3.10;;;8.70;99.90;;;;;;5093659;28;20861;-72
2021/05/16 01:22:51;;;;;;;3.60;2.70;;;8.80;99.90;;;;;;5090228;28;20438;-72
2021/05/16 01:25:18;;;;;;;4.70;2.70;;;8.60;99.90;;;;;;5099853;28;20469;-72
2021/05/16 01:27:46;;;;;;;6.20;2.80;;;8.60;99.90;;;;;;5099382;28;20479;-72
2021/05/16 01:30:14;;;;;;;4.37;2.90;;;8.50;99.90;;;;;;5099589;28;20891;-72
2021/05/16 01:32:41;;;;;;;3.13;2.53;;;8.40;99.90;;;;;;5098489;28;20480;-71
2021/05/16 01:35:09;;;;;;;6.60;2.70;;;8.40;99.90;;;;;;5088454;28;20472;-71
2021/05/16 01:37:37;;;;;;;3.40;2.87;;;8.60;99.90;;;;;;5078927;28;20752;-71
2021/05/16 01:40:07;;;;;;;4.20;2.60;;;8.70;99.90;;;;;;5079052;28;20497;-72
2021/05/16 01:42:34;;;;;;;4.30;2.50;;;8.60;99.90;;;;;;5078813;28;20848;-71
2021/05/16 01:45:03;;;;;;;4.40;2.90;;;8.70;99.90;;;;;;5079037;28;20457;-71
2021/05/16 01:47:30;;;;;;;3.70;3.07;;;8.60;99.90;;;;;;5078721;28;20544;-71
2021/05/16 01:50:05;;;;;;;4.83;3.50;;;8.70;99.90;;;;;;5078932;28;20906;-71
2021/05/16 01:52:32;;;;;;;4.90;2.90;;;8.60;99.90;;;;;;5078754;28;20484;-71
2021/05/16 01:55:00;;;;;;;4.50;3.13;;;8.60;99.90;;;;;;5077563;28;20744;-71
2021/05/16 01:57:29;;;;;;;4.50;2.97;;;8.70;99.90;;;;;;5086718;28;20456;-72
2021/05/16 01:59:56;;;;;;;3.37;2.60;;;8.50;99.90;;;;;;5099106;28;20456;-71
2021/05/16 02:02:23;;;;;;;5.50;2.83;;;8.70;99.90;;;;;;5098643;28;20543;-72
2021/05/16 02:04:50;;;;;;;4.03;2.73;;;8.70;99.90;;;;;;5098967;28;20547;-71
2021/05/16 02:07:18;;;;;;;4.37;2.87;;;8.60;99.90;;;;;;5097946;28;20523;-72
2021/05/16 02:09:45;;;;;;;3.90;3.00;;;8.50;99.90;;;;;;5098658;28;20456;-72
2021/05/16 02:12:17;;;;;;;3.37;2.60;;;8.60;99.90;;;;;;5098303;28;20480;-72
2021/05/16 02:14:45;;;;;;;4.23;2.73;;;8.60;99.90;;;;;;5098471;28;20456;-73
2021/05/16 02:17:14;;;;;;;3.40;3.00;;;8.60;99.90;;;;;;5098685;28;20470;-72
2021/05/16 02:19:41;;;;;;;4.00;3.20;;;8.50;99.90;;;;;;5098250;28;20479;-72
2021/05/16 02:22:09;;;;;;;4.80;3.13;;;8.60;99.90;;;;;;5098272;28;20784;-72
2021/05/16 02:24:36;;;;;;;6.17;3.60;;;8.70;99.90;;;;;;5098525;28;21127;-72
2021/05/16 02:27:03;;;;;;;5.23;3.40;;;8.80;99.90;;;;;;5098201;28;20517;-72
2021/05/16 02:29:31;;;;;;;5.43;3.07;;;8.70;99.90;;;;;;5098298;28;20710;-72
2021/05/16 02:32:00;;;;;;;3.80;3.00;;;8.80;99.90;;;;;;5097677;28;20574;-72
2021/05/16 02:34:27;;;;;;;4.57;3.47;;;8.70;99.90;;;;;;5094694;28;20460;-72
2021/05/16 02:36:54;;;;;;;4.10;3.07;;;8.80;99.90;;;;;;5093505;28;20440;-72
2021/05/16 02:39:21;;;;;;;6.33;3.20;;;8.70;99.90;;;;;;5081345;28;20810;-72
2021/05/16 02:41:49;;;;;;;5.00;3.80;;;8.60;99.90;;;;;;5077565;28;20458;-72
2021/05/16 02:44:18;;;;;;;4.30;3.50;;;8.60;99.90;;;;;;5077646;28;20460;-72
2021/05/16 02:46:45;;;;;;;5.10;3.13;;;8.70;99.90;;;;;;5077709;28;20527;-72
2021/05/16 02:49:13;;;;;;;4.23;3.27;;;8.80;99.90;;;;;;5092403;28;20808;-72
2021/05/16 02:51:41;;;;;;;3.53;2.90;;;8.80;99.90;;;;;;5096239;28;20483;-73
2021/05/16 02:54:08;;;;;;;4.90;3.20;;;8.70;99.90;;;;;;5094113;28;20456;-72
2021/05/16 02:56:35;;;;;;;5.33;4.17;;;8.70;99.90;;;;;;5077491;28;20518;-72
2021/05/16 02:59:03;;;;;;;5.37;3.57;;;8.70;99.90;;;;;;5077441;28;20472;-72
2021/05/16 03:01:31;;;;;;;4.30;3.40;;;8.60;99.90;;;;;;5077429;28;20495;-72
2021/05/16 03:03:58;;;;;;;4.43;3.57;;;8.70;99.90;;;;;;5077875;28;20468;-72
2021/05/16 03:06:26;;;;;;;6.17;3.57;;;8.80;99.90;;;;;;5077124;28;20869;-73
2021/05/16 03:08:53;;;;;;;4.73;3.97;;;8.70;99.90;;;;;;5059972;28;20889;-73
2021/05/16 03:11:21;;;;;;;6.07;3.73;;;8.60;99.90;;;;;;5077337;28;20448;-72
2021/05/16 03:13:50;;;;;;;3.90;2.73;;;8.70;99.90;;;;;;5077359;28;20456;-72
2021/05/16 03:16:19;;;;;;;5.73;3.83;;;8.60;99.90;;;;;;5059620;28;20544;-72
2021/05/16 03:18:47;;;;;;;4.00;3.30;;;8.60;99.90;;;;;;5077399;28;20492;-72
2021/05/16 03:21:19;;;;;;;4.10;3.67;;;8.60;99.90;;;;;;5077332;28;20457;-72
2021/05/16 03:23:50;;;;;;;4.83;3.00;;;8.60;99.90;;;;;;5076982;28;20472;-72
2021/05/16 03:26:25;;;;;;;5.20;3.60;;;8.60;99.90;;;;;;5058946;28;20452;-72
2021/05/16 03:28:57;;;;;;;4.67;3.90;;;8.60;99.90;;;;;;5076835;28;20455;-72
2021/05/16 03:31:25;;;;;;;4.80;3.40;;;8.70;99.90;;;;;;5076510;28;20446;-72
2021/05/16 03:33:54;;;;;;;4.13;3.30;;;8.70;99.90;;;;;;5076572;28;20464;-72
2021/05/16 03:36:22;;;;;;;3.97;3.47;;;8.70;99.90;;;;;;5074888;28;20502;-72
2021/05/16 03:38:53;;;;;;;3.70;3.00;;;8.70;99.90;;;;;;5076964;28;20461;-72
2021/05/16 03:41:21;;;;;;;4.67;3.70;;;8.80;99.90;;;;;;5076436;28;20529;-72
2021/05/16 03:43:49;;;;;;;5.60;3.60;;;8.80;99.90;;;;;;5087745;28;20470;-73
2021/05/16 03:46:16;;;;;;;4.43;3.67;;;8.90;99.90;;;;;;5096597;28;20449;-72
2021/05/16 03:48:46;;;;;;;7.20;3.80;;;8.90;99.90;;;;;;5097004;28;20456;-72
2021/05/16 03:51:13;;;;;;;6.20;3.53;;;8.80;99.90;;;;;;5096991;28;20464;-72
2021/05/16 03:53:40;;;;;;;4.77;3.50;;;8.70;99.90;;;;;;5097075;28;20483;-72
2021/05/16 03:56:10;;;;;;;5.33;3.80;;;8.80;99.90;;;;;;5096465;28;20524;-72
2021/05/16 03:58:37;;;;;;;5.13;3.30;;;9.00;99.90;;;;;;5096517;28;20455;-72
2021/05/16 04:01:34;;;;;;;4.63;3.30;;;8.70;99.90;;;;;;5096662;28;20487;-75
2021/05/16 04:04:02;;;;;;;5.17;3.80;;;8.70;99.90;;;;;;5076320;28;20539;-72
2021/05/16 04:06:36;;;;;;;6.40;2.83;;;8.80;99.90;;;;;;5076512;28;20453;-73
2021/05/16 04:09:04;;;;;;;4.00;3.30;;;8.90;99.90;;;;;;5076274;28;20445;-72
2021/05/16 04:11:33;;;;;;;6.23;3.43;;;8.90;99.90;;;;;;5076512;28;20461;-72
2021/05/16 04:14:01;;;;;;;4.00;3.30;;;8.90;99.90;;;;;;5076346;28;21132;-72
2021/05/16 04:16:29;;;;;;;6.63;2.87;;;8.90;99.90;;;;;;5086664;28;20456;-72
2021/05/16 04:19:00;;;;;;;4.37;3.37;;;9.00;99.90;;;;;;5096391;28;20505;-72
2021/05/16 04:21:28;;;;;;;5.63;3.47;;;8.90;99.90;;;;;;5096626;28;20786;-72
2021/05/16 04:23:55;;;;;;;5.23;3.40;;;8.80;99.90;;;;;;5096451;28;20448;-72
2021/05/16 04:26:22;;;;;;;4.23;3.27;;;8.90;99.90;;;;;;5096573;28;20460;-72
2021/05/16 04:28:51;;;;;;;7.53;2.77;;;8.90;99.90;;;;;;5096596;28;20448;-72
2021/05/16 04:31:18;;;;;;;7.13;3.90;;;9.00;99.90;;;;;;5096256;28;20459;-72
2021/05/16 04:33:45;;;;;;;4.87;3.10;;;9.00;99.90;;;;;;5096246;28;20491;-72
2021/05/16 04:36:12;;;;;;;5.90;3.57;;;9.00;99.90;;;;;;5096653;28;21007;-72
2021/05/16 04:38:40;;;;;;;5.77;3.77;;;9.10;99.90;;;;;;5082780;28;20465;-71
2021/05/16 04:41:07;;;;;;;4.07;3.13;;;9.20;99.90;;;;;;5076468;28;20456;-71
2021/05/16 04:43:37;;;;;;;6.97;5.00;;;9.20;99.90;;;;;;5075971;28;20448;-71
2021/05/16 04:46:05;;;;;;;5.23;3.60;;;9.10;99.90;;;;;;5076275;28;20457;-71
2021/05/16 04:48:34;;;;;;;4.93;2.90;;;9.10;99.90;;;;;;5085562;28;20549;-72
2021/05/16 04:51:01;;;;;;;4.40;3.47;;;9.20;99.90;;;;;;5079227;28;20452;-72
2021/05/16 04:53:30;;;;;;;5.40;3.30;;;9.10;99.90;;;;;;5084002;28;20479;-72
2021/05/16 04:56:00;;;;;;;4.20;3.57;;;9.30;99.90;;;;;;5079559;28;20490;-71
2021/05/16 04:58:27;;;;;;;4.10;3.13;;;9.30;99.90;;;;;;5090336;28;20444;-71
2021/05/16 05:00:58;;;;;;;4.50;3.60;;;9.20;99.90;;;;;;5099927;28;20463;-72
2021/05/16 05:03:27;;;;;;;5.10;3.77;;;9.30;99.90;;;;;;5099790;28;20451;-72
2021/05/16 05:05:55;;;;;;;4.37;3.30;;;9.20;99.90;;;;;;5099800;28;20533;-72
2021/05/16 05:08:23;;;;;;;4.80;3.60;;;9.50;99.90;;;;;;5098804;28;20444;-72
2021/05/16 05:10:50;;;;;;;6.30;3.87;;;9.40;99.90;;;;;;5099805;28;20513;-72
2021/05/16 05:13:19;;;;;;;4.10;3.30;;;9.50;99.90;;;;;;5099289;28;20484;-72
2021/05/16 05:15:46;;;;;;;4.80;3.37;;;9.70;99.90;;;;;;5099649;28;20470;-71
2021/05/16 05:18:18;;;;;;;4.53;3.60;;;9.60;99.90;;;;;;5099660;28;20452;-72
2021/05/16 05:20:51;;;;;;;4.93;3.10;;;9.60;99.90;;;;;;5099187;28;20463;-72
2021/05/16 05:23:26;;;;;;;5.60;3.37;;;9.50;99.90;;;;;;5094477;28;20990;-72
2021/05/16 05:25:58;;;;;;;4.40;3.50;;;9.60;99.90;;;;;;5087519;28;20772;-72
2021/05/16 05:28:49;;;;;;;5.13;3.50;;;9.50;99.90;;;;;;5098945;28;20892;-72
2021/05/16 05:31:17;;;;;;;4.17;3.20;;;9.60;99.90;;;;;;5080199;28;20771;-72
2021/05/16 05:33:46;;;;;;;7.67;3.83;;;9.60;99.90;;;;;;5079712;28;20498;-72
2021/05/16 05:36:17;;;;;;;4.37;2.83;;;9.70;99.90;;;;;;5087279;28;20494;-72
2021/05/16 05:38:47;;;;;;;7.43;3.80;;;9.70;99.90;;;;;;5098349;28;20452;-72
2021/05/16 05:41:17;;;;;;;10.17;3.70;;;9.80;99.90;;;;;;5086625;28;20453;-72
2021/05/16 05:43:44;;;;;;;8.50;3.80;;;9.70;99.90;;;;;;5082697;28;20441;-71
2021/05/16 05:46:11;;;;;;;4.63;3.57;;;9.90;99.90;;;;;;5078919;28;20488;-72
2021/05/16 05:48:40;;;;;;;4.87;3.87;;;9.80;99.90;;;;;;5082444;28;20448;-72
2021/05/16 05:51:09;;;;;;;6.73;3.63;;;9.80;99.90;;;;;;5078532;28;20491;-71
2021/05/16 05:53:40;;;;;;;5.30;4.00;;;9.70;99.90;;;;;;5078587;28;20491;-71
2021/05/16 05:56:07;;;;;;;4.73;3.80;;;9.80;99.90;;;;;;5098841;28;20864;-71
2021/05/16 05:58:36;;;;;;;6.47;3.60;;;10.00;99.90;;;;;;5080322;28;20452;-72
2021/05/16 06:01:04;;;;;;;5.80;4.20;;;10.10;99.90;;;;;;5078723;28;20795;-71
2021/05/16 06:03:34;;;;;;;4.90;3.60;;;10.10;99.90;;;;;;5087985;28;20447;-72
2021/05/16 06:06:04;;;;;;;7.87;4.33;;;10.10;99.90;;;;;;5091204;28;20896;-72
2021/05/16 06:08:34;;;;;;;7.50;4.67;;;10.10;99.90;;;;;;5078271;28;20480;-72
2021/05/16 06:11:20;;;;;;;5.43;3.80;;;10.30;99.90;;;;;;5082975;28;20452;-72
2021/05/16 06:13:49;;;;;;;6.07;4.90;;;10.50;99.90;;;;;;5098110;28;20552;-72
2021/05/16 06:16:19;;;;;;;6.67;5.17;;;11.00;99.90;;;;;;5091051;28;21024;-73
2021/05/16 06:18:46;;;;;;;6.13;5.03;;;11.60;99.90;;;;;;5097045;28;20448;-72
2021/05/16 06:21:15;;;;;;;6.20;4.87;;;12.60;99.90;;;;;;5085108;28;20465;-71
2021/05/16 06:24:04;;;;;;;8.77;4.77;;;12.70;99.90;;;;;;5083693;28;20456;-72
2021/05/16 06:26:42;;;;;;;4.90;4.23;;;12.00;99.90;;;;;;5097752;28;20444;-73
2021/05/16 06:29:51;;;;;;;10.27;7.43;;;12.30;99.90;;;;;;5082239;28;20544;-72
2021/05/16 06:32:18;;;;;;;8.63;4.60;;;11.90;99.90;;;;;;5076964;28;20554;-72
2021/05/16 06:34:46;;;;;;;9.93;4.50;;;12.30;99.90;;;;;;5077334;28;20540;-72
2021/05/16 06:37:13;;;;;;;5.77;4.10;;;12.40;99.90;;;;;;5077270;28;20473;-72
2021/05/16 06:39:40;;;;;;;7.03;4.70;;;12.40;99.90;;;;;;5077692;28;20495;-73
2021/05/16 06:42:08;;;;;;;8.20;6.03;;;11.90;99.90;;;;;;5096971;28;20452;-72
2021/05/16 06:44:35;;;;;;;7.87;5.33;;;11.70;99.90;;;;;;5098036;28;20538;-70
2021/05/16 06:47:03;;;;;;;13.57;6.63;;;11.60;99.90;;;;;;5097394;28;20555;-72
2021/05/16 06:49:30;;;;;;;10.10;7.53;;;11.70;99.90;;;;;;5096020;28;20513;-73
2021/05/16 06:51:57;;;;;;;11.43;7.13;;;11.70;99.90;;;;;;5095990;28;20475;-73
2021/05/16 06:54:24;;;;;;;11.73;7.10;;;11.60;99.90;;;;;;5096439;28;20448;-73
2021/05/16 06:56:53;;;;;;;6.77;4.50;;;11.70;99.90;;;;;;5097225;28;20523;-72
2021/05/16 06:59:21;;;;;;;14.60;7.60;;;11.60;99.90;;;;;;5097373;28;20452;-73
2021/05/16 07:01:48;;;;;;;12.10;6.90;;;11.70;99.90;;;;;;5097689;28;20452;-73
2021/05/16 07:04:15;;;;;;;11.50;6.10;;;11.70;99.90;;;;;;5097368;28;20555;-73
2021/05/16 07:06:42;;;;;;;9.13;6.33;;;11.70;99.90;;;;;;5097454;28;20529;-72
2021/05/16 07:09:10;;;;;;;8.10;6.13;;;11.90;99.90;;;;;;5097204;28;20746;-72
2021/05/16 07:11:37;;;;;;;9.30;5.70;;;11.80;99.90;;;;;;5096449;28;20539;-72
2021/05/16 07:14:04;;;;;;;10.43;6.43;;;11.60;99.90;;;;;;5096227;28;20861;-72
2021/05/16 07:16:33;;;;;;;11.10;6.37;;;11.70;99.90;;;;;;5092755;28;20950;-72
2021/05/16 07:19:01;;;;;;;9.30;6.20;;;11.60;99.90;;;;;;5076472;28;20537;-72
2021/05/16 07:21:29;;;;;;;7.50;5.57;;;11.70;99.90;;;;;;5076303;28;20476;-72
2021/05/16 07:23:57;;;;;;;9.40;6.47;;;11.90;99.90;;;;;;5076235;28;20456;-72
2021/05/16 07:26:24;;;;;;;9.90;6.80;;;12.00;99.90;;;;;;5076507;28;20514;-72
2021/05/16 07:28:52;;;;;;;9.83;5.80;;;12.10;99.90;;;;;;5082966;28;20456;-72
2021/05/16 07:31:19;;;;;;;8.43;6.23;;;12.00;99.90;;;;;;5096810;28;20963;-72
2021/05/16 07:33:47;;;;;;;9.53;5.47;;;12.10;99.90;;;;;;5096823;28;20530;-72
2021/05/16 07:36:15;;;;;;;6.03;5.40;;;12.20;99.90;;;;;;5096675;28;20459;-72
2021/05/16 07:38:42;;;;;;;8.13;4.90;;;12.40;99.90;;;;;;5096228;28;20475;-72
2021/05/16 07:41:09;;;;;;;7.10;4.43;;;12.40;99.90;;;;;;5096775;28;20547;-73
2021/05/16 07:43:36;;;;;;;11.20;4.23;;;12.50;99.90;;;;;;5096566;28;20490;-72
2021/05/16 07:46:04;;;;;;;7.77;4.67;;;12.50;99.90;;;;;;5095513;28;20525;-73
2021/05/16 07:48:31;;;;;;;8.10;4.50;;;12.50;99.90;;;;;;5096150;28;20875;-72
2021/05/16 07:51:08;;;;;;;7.37;4.97;;;12.40;99.90;;;;;;5095998;28;20539;-73
2021/05/16 07:53:35;;;;;;;4.83;4.17;;;12.50;99.90;;;;;;5092378;28;20757;-73
2021/05/16 07:56:04;;;;;;;7.20;3.70;;;13.10;99.90;;;;;;5082481;28;20441;-72
2021/05/16 07:58:31;;;;;;;6.70;4.27;;;12.70;99.90;;;;;;5075954;28;20461;-73
2021/05/16 08:00:59;;;;;;;8.57;4.33;;;13.20;99.90;;;;;;5095837;28;21019;-72
2021/05/16 08:03:26;;;;;;;8.13;4.37;;;13.50;99.90;;;;;;5096252;28;20459;-72
2021/05/16 08:05:53;;;;;;;5.37;3.53;;;13.60;99.90;;;;;;5096148;28;20468;-72
2021/05/16 08:08:21;;;;;;;5.23;3.87;;;13.50;99.90;;;;;;5095103;28;20463;-73
2021/05/16 08:10:49;;;;;;;7.57;3.97;;;13.80;99.90;;;;;;5094413;28;20488;-72
2021/05/16 08:13:16;;;;;;;7.03;3.63;;;13.70;99.90;;;;;;5075430;28;20489;-72
2021/05/16 08:15:43;;;;;;;9.00;4.27;;;13.60;99.90;;;;;;5075119;28;20538;-73
2021/05/16 08:18:11;;;;;;;5.40;3.23;;;13.40;99.90;;;;;;5075522;28;20552;-73
2021/05/16 08:20:41;;;;;;;8.50;5.27;;;13.70;99.90;;;;;;5076587;28;20552;-74
2021/05/16 08:23:09;;;;;;;6.90;4.07;;;13.60;99.90;;;;;;5076720;28;20463;-74
2021/05/16 08:25:39;;;;;;;8.00;3.90;;;13.30;99.90;;;;;;5079659;28;20861;-72
2021/05/16 08:28:09;;;;;;;8.60;5.67;;;13.40;99.90;;;;;;5084652;28;20552;-72
2021/05/16 08:30:36;;;;;;;9.03;4.70;;;13.40;99.90;;;;;;5086175;28;20445;-72
2021/05/16 08:33:09;;;;;;;8.67;4.57;;;13.60;99.90;;;;;;5089092;28;20595;-72
2021/05/16 08:35:37;;;;;;;5.40;3.67;;;13.60;99.90;;;;;;5089503;28;20457;-72
2021/05/16 08:38:04;;;;;;;5.43;3.80;;;13.40;99.90;;;;;;5094644;28;20487;-74
2021/05/16 08:40:32;;;;;;;7.70;4.33;;;13.40;99.90;;;;;;5089286;28;20861;-73
2021/05/16 08:43:07;;;;;;;7.73;5.53;;;13.50;99.90;;;;;;5085596;28;20487;-73
2021/05/16 08:45:37;;;;;;;6.47;4.07;;;13.40;99.90;;;;;;5079611;28;20448;-73
2021/05/16 08:48:04;;;;;;;7.07;4.83;;;13.30;99.90;;;;;;5078169;28;20517;-73
2021/05/16 08:50:32;;;;;;;8.67;4.97;;;13.70;99.90;;;;;;5099221;28;20531;-73
2021/05/16 08:52:59;;;;;;;5.30;3.80;;;14.20;99.90;;;;;;5098972;28;20483;-73
2021/05/16 08:55:27;;;;;;;6.23;4.03;;;13.80;99.90;;;;;;5094401;28;20552;-73
2021/05/16 08:57:55;;;;;;;10.43;5.00;;;13.70;99.90;;;;;;5078853;28;20457;-73
2021/05/16 09:00:25;;;;;;;8.53;4.40;;;13.50;99.90;;;;;;5078983;28;20495;-73
2021/05/16 09:03:12;;;;;;;3.83;2.30;;;12.90;99.90;;;;;;5078292;28;20452;-73
2021/05/16 09:05:41;;;;;;;5.90;3.03;;;13.40;99.90;;;;;;5080017;28;21128;-74
2021/05/16 09:08:12;;;;;;;7.93;3.33;;;13.20;99.90;;;;;;5089305;28;20526;-73
2021/05/16 09:10:42;;;;;;;4.40;2.90;;;13.90;99.90;;;;;;5092869;28;20490;-73
2021/05/16 09:13:15;;;;;;;5.77;3.10;;;14.10;99.90;;;;;;5098422;28;20826;-73
2021/05/16 09:15:58;;;;;;;6.53;3.57;;;14.10;99.90;;;;;;5090966;28;20449;-73
2021/05/16 09:18:33;;;;;;;7.73;3.03;;;13.50;99.90;;;;;;5090054;28;20462;-73
2021/05/16 09:21:27;;;;;;;4.83;3.00;;;14.00;99.90;;;;;;5098514;28;20432;-73
2021/05/16 09:24:13;;;;;;;3.87;2.53;;;14.10;99.90;;;;;;5098534;28;20467;-74
2021/05/16 09:26:57;;;;;;;6.23;3.50;;;14.60;99.90;;;;;;5098821;28;20452;-73
2021/05/16 09:29:27;;;;;;;5.33;2.40;;;14.40;99.90;;;;;;5078162;28;20467;-73
2021/05/16 09:31:57;;;;;;;8.70;4.53;;;15.10;99.90;;;;;;5078260;28;20475;-74
2021/05/16 09:34:25;;;;;;;6.70;2.70;;;14.70;99.90;;;;;;5077178;28;20929;-73
2021/05/16 09:36:56;;;;;;;5.20;3.17;;;14.40;99.90;;;;;;5082379;28;20446;-71
2021/05/16 09:39:25;;;;;;;4.20;3.00;;;14.50;99.90;;;;;;5087563;28;20762;-73
2021/05/16 09:41:57;;;;;;;7.63;3.87;;;15.00;99.90;;;;;;5077230;28;20492;-73
2021/05/16 09:44:32;;;;;;;5.27;3.50;;;15.20;99.90;;;;;;5088527;28;20444;-73
2021/05/16 09:47:18;;;;;;;5.63;3.07;;;15.20;99.90;;;;;;5098195;28;20546;-73
2021/05/16 09:49:51;;;;;;;4.93;3.63;;;14.80;99.90;;;;;;5094673;28;20448;-74
2021/05/16 09:52:22;;;;;;;6.37;3.50;;;14.80;99.90;;;;;;5077444;28;20607;-74
2021/05/16 09:55:00;;;;;;;5.33;3.10;;;14.50;99.90;;;;;;5077988;28;20460;-74
2021/05/16 09:57:31;;;;;;;4.30;3.90;;;14.00;99.90;;;;;;5077460;28;20654;-73
2021/05/16 10:00:00;;;;;;;7.07;2.97;;;13.90;99.90;;;;;;5077358;28;20452;-72
2021/05/16 10:02:31;;;;;;;8.67;4.07;;;13.50;99.90;;;;;;5089362;28;20901;-72
2021/05/16 10:05:02;;;;;;;6.10;3.50;;;13.20;99.90;;;;;;5097438;28;20538;-70
2021/05/16 10:07:32;;;;;;;6.10;2.77;;;12.90;99.90;;;;;;5082937;28;20936;-69
2021/05/16 10:10:00;;;;;;;9.83;3.40;;;11.60;99.90;;;;;;5087902;28;20486;-69
2021/05/16 10:12:29;;;;;;;6.93;2.60;;;11.10;99.90;;;;;;5089730;28;20499;-70
2021/05/16 10:15:02;;;;;;;4.93;3.40;;;10.80;99.90;;;;;;5078715;28;20464;-70
2021/05/16 10:17:36;;;;;;;6.37;2.57;;;10.50;99.90;;;;;;5079444;28;20492;-71
2021/05/16 10:20:11;;;;;;;3.37;2.40;;;10.30;99.90;;;;;;5078588;28;20445;-71
2021/05/16 10:22:41;;;;;;;7.60;2.43;;;10.50;99.90;;;;;;5076935;28;20506;-72
2021/05/16 10:25:10;;;;;;;4.50;2.70;;;10.70;99.90;;;;;;5077129;28;20461;-71
2021/05/16 10:27:48;;;;;;;5.37;2.87;;;10.90;99.90;;;;;;5090675;28;20838;-71
2021/05/16 10:30:27;;;;;;;6.60;2.83;;;11.10;99.90;;;;;;5097389;28;20456;-70
2021/05/16 10:33:08;;;;;;;3.80;3.13;;;11.20;99.90;;;;;;5096993;28;20540;-72
2021/05/16 10:35:48;;;;;;;4.77;3.97;;;11.40;99.90;;;;;;5098216;28;20444;-73
2021/05/16 10:38:40;;;;;;;5.70;3.03;;;11.60;99.90;;;;;;5098463;28;20459;-72
2021/05/16 10:41:25;;;;;;;8.07;4.50;;;11.80;99.90;;;;;;5065077;28;20471;-74
2021/05/16 10:44:12;;;;;;;6.00;4.20;;;12.10;99.90;;;;;;5077553;28;20461;-73
2021/05/16 10:46:43;;;;;;;6.83;4.23;;;12.50;99.90;;;;;;5077455;28;20534;-72
2021/05/16 10:49:27;;;;;;;5.57;4.13;;;12.40;99.90;;;;;;5079597;28;20452;-72
2021/05/16 10:52:19;;;;;;;8.20;4.73;;;12.40;99.90;;;;;;5084495;28;20860;-73
2021/05/16 10:54:49;;;;;;;5.30;4.03;;;12.20;99.90;;;;;;5077554;28;20490;-73
2021/05/16 10:57:21;;;;;;;6.37;4.57;;;12.70;99.90;;;;;;5077060;28;20495;-73
2021/05/16 10:59:48;;;;;;;8.10;4.40;;;12.70;99.90;;;;;;5076571;28;20749;-72
2021/05/16 11:02:49;;;;;;;6.47;4.37;;;12.70;99.90;;;;;;5080395;28;20464;-73
2021/05/16 11:05:51;;;;;;;10.67;5.30;;;12.90;99.90;;;;;;5089468;28;20456;-72
2021/05/16 11:09:09;;;;;;;7.07;4.87;;;12.60;99.90;;;;;;5076939;28;20452;-72
2021/05/16 11:11:56;;;;;;;8.10;4.23;;;12.70;99.90;;;;;;5077042;28;20449;-73
2021/05/16 11:14:34;;;;;;;5.23;3.70;;;12.50;99.90;;;;;;5085834;28;20475;-73
2021/05/16 11:17:35;;;;;;;6.10;3.63;;;12.40;99.90;;;;;;5096202;28;20520;-73
2021/05/16 11:20:14;;;;;;;8.70;3.63;;;12.40;99.90;;;;;;5086341;28;20448;-72
2021/05/16 11:22:51;;;;;;;9.80;5.00;;;12.40;99.90;;;;;;5094532;28;20455;-71
2021/05/16 11:25:25;;;;;;;8.83;4.20;;;12.60;99.90;;;;;;5089746;28;20466;-71
2021/05/16 11:27:55;;;;;;;6.90;4.57;;;12.10;99.90;;;;;;5082755;28;20991;-70
2021/05/16 11:30:28;;;;;;;7.13;5.10;;;12.10;99.90;;;;;;5076867;28;20479;-70
2021/05/16 11:32:55;;;;;;;5.80;3.53;;;12.20;99.90;;;;;;5096106;28;20517;-73
2021/05/16 11:35:33;;;;;;;4.87;3.27;;;12.10;99.90;;;;;;5082225;28;20518;-72
2021/05/16 11:38:01;;;;;;;5.20;2.80;;;11.90;99.90;;;;;;5075360;28;20508;-72
2021/05/16 11:40:31;;;;;;;4.33;2.80;;;11.60;99.90;;;;;;5075535;28;20453;-71
2021/05/16 11:43:07;;;;;;;3.90;3.30;;;11.70;99.90;;;;;;5085063;28;20461;-71
2021/05/16 11:45:38;;;;;;;5.50;2.23;;;11.90;99.90;;;;;;5077722;28;20444;-72
2021/05/16 11:48:08;;;;;;;7.57;2.40;;;12.10;99.90;;;;;;5092787;28;20479;-72
2021/05/16 11:50:45;;;;;;;4.63;3.10;;;12.60;99.90;;;;;;5075007;28;20453;-72
2021/05/16 11:53:13;;;;;;;9.50;6.83;;;13.40;99.90;;;;;;5075529;28;20507;-71
2021/05/16 11:55:42;;;;;;;4.40;2.97;;;13.20;99.90;;;;;;5075339;28;20991;-72
2021/05/16 11:58:11;;;;;;;5.73;3.00;;;13.30;99.90;;;;;;5075144;28;20547;-72
2021/05/16 12:00:39;;;;;;;4.43;3.47;;;13.30;99.90;;;;;;5075558;28;21047;-72
2021/05/16 12:03:17;;;;;;;4.13;2.80;;;13.70;99.90;;;;;;5074995;28;20860;-73
2021/05/16 12:05:49;;;;;;;4.33;2.43;;;13.70;99.90;;;;;;5074587;28;20547;-74
2021/05/16 12:08:27;;;;;;;4.77;2.93;;;13.70;99.90;;;;;;5074915;28;20464;-73
2021/05/16 12:11:14;;;;;;;5.77;3.13;;;13.10;99.90;;;;;;5075453;28;20884;-73
2021/05/16 12:14:02;;;;;;;5.00;3.03;;;12.90;99.90;;;;;;5075014;28;20491;-72
2021/05/16 12:16:36;;;;;;;5.20;2.60;;;12.80;99.90;;;;;;5075438;28;20540;-72
2021/05/16 12:19:05;;;;;;;7.10;2.93;;;13.00;99.90;;;;;;5083963;28;20460;-72
2021/05/16 12:21:36;;;;;;;5.97;3.50;;;12.90;99.90;;;;;;5090002;28;20449;-72
2021/05/16 12:24:06;;;;;;;6.40;2.63;;;13.00;99.90;;;;;;5075401;28;20452;-72
2021/05/16 12:27:05;;;;;;;3.87;2.23;;;13.40;99.90;;;;;;5080122;28;20460;-72
2021/05/16 12:29:34;;;;;;;5.00;2.40;;;13.30;99.90;;;;;;5091062;28;20547;-72
2021/05/16 12:32:02;;;;;;;3.43;2.17;;;13.70;99.90;;;;;;5088295;28;20521;-71
2021/05/16 12:34:30;;;;;;;4.43;2.70;;;13.70;99.90;;;;;;5075517;28;20507;-73
2021/05/16 12:36:59;;;;;;;3.93;2.40;;;13.40;99.90;;;;;;5078119;28;20816;-72
2021/05/16 12:39:42;;;;;;;4.93;2.60;;;13.30;99.90;;;;;;5075434;28;20461;-73
2021/05/16 12:42:27;;;;;;;3.90;2.17;;;13.20;99.90;;;;;;5074175;28;20449;-72
2021/05/16 12:45:16;;;;;;;3.60;2.40;;;13.20;99.90;;;;;;5074763;28;20474;-72
2021/05/16 12:47:54;;;;;;;2.80;2.30;;;13.20;99.90;;;;;;5075484;28;20473;-73
2021/05/16 12:50:33;;;;;;;3.60;2.40;;;13.30;99.90;;;;;;5075573;28;20468;-73
2021/05/16 12:53:25;;;;;;;4.73;2.20;;;13.70;99.90;;;;;;5075434;28;20480;-73
2021/05/16 12:55:54;;;;;;;3.20;2.03;;;13.90;99.90;;;;;;5067579;28;20456;-73
2021/05/16 12:58:25;;;;;;;6.40;3.07;;;14.00;99.90;;;;;;5074923;28;20891;-72
2021/05/16 13:00:55;;;;;;;6.70;3.10;;;14.30;99.90;;;;;;5075195;28;21237;-72
2021/05/16 13:03:30;;;;;;;9.50;3.67;;;14.50;99.90;;;;;;5074824;28;20449;-71
2021/05/16 13:05:58;;;;;;;4.33;2.23;;;14.20;99.90;;;;;;5073116;28;20456;-72
2021/05/16 13:08:42;;;;;;;4.70;2.30;;;14.10;99.90;;;;;;5074701;28;20463;-72
2021/05/16 13:11:10;;;;;;;5.37;2.50;;;14.20;99.90;;;;;;5078370;28;20510;-72